Thursday, November 23, 2017, 7:10 AM GMT
Back to Local

CWUX, La Baie , Que.

Location: , , Canada Lat: 48.3
Local Time: 7:10 AM GMT ( 7:10 GMT) Lon: -70.933
Time Zone: GMT Elev: 442 ft

Show me the last for .
Show Coded

Time T Td Feel RH Dir Speed Gust Alt SLP Vis Weather Sky Remarks
2017-11-23 06:00 19 14 7 79 280° 10 - - 29.97 0 None
2017-11-23 05:00 19 15 7 81 280° 12 - - 29.99 0 None
2017-11-23 04:00 20 15 9 82 290° 9 - - 30.01 0 None
2017-11-23 03:00 20 15 7 81 280° 13 - - 30.02 0 Peak wind: 21 mph (19 kts) from 280° at 33 min
2017-11-23 02:00 20 14 8 76 270° 12 - - 30.03 0 None
2017-11-23 01:00 20 14 8 77 270° 12 - - 30.03 0 None
2017-11-23 00:00 22 16 7 76 270° 13 20 - 30.02 0 Peak wind: 19 mph (17 kts) from 270° at 54 min
2017-11-22 23:00 23 17 8 78 280° 13 20 - 30.01 0 Peak wind: 19 mph (17 kts) from 290° at 52 min
2017-11-22 22:00 24 17 10 76 270° 13 18 - 30.02 0 None
2017-11-22 21:00 24 19 13 81 280° 12 - - 29.99 0 None
2017-11-22 20:00 25 20 14 82 280° 12 - - 29.98 0 None
2017-11-22 19:00 26 22 14 85 270° 13 - - 29.96 0 None
2017-11-22 18:00 27 22 16 84 290° 12 - - 29.96 0 None
2017-11-22 15:00 29 27 20 92 270° 10 - - 29.96 0 None
2017-11-22 14:00 30 28 21 91 260° 10 - - 29.93 0 None
2017-11-22 13:00 32 30 24 93 270° 9 - - 29.91 0 None
2017-11-22 12:00 34 32 31 91 240° 3 - - 29.88 0 None
2017-11-22 10:00 31 30 - 95 - Calm - - 29.85 0 None
2017-11-22 09:00 31 29 - 94 - Calm - - 29.83 0 None
2017-11-22 08:00 31 28 - 90 310° 1 - - 29.82 0 None

Support USWX by starting your Amazon purchase here.